Essexville, Michigan
Current Conditions -  °F | °C
As of 4:55 PM on Thursday 27 Nov 2014 (Local Time) from KHYX Reporting Station
Overcast Overcast  
Wind Chill: 18°   Ceiling: 3800
Heat Index: 28°   Visibility: 10mi
Dew Point: 18°   Wind: 13mph
Humidity: 64%   Direction: 300°WNW
Pressure: 30.23"   Gusts: NA
Location:  43.62°N, 83.84°W
Report Text: KHYX 272155Z AUTO 30011KT 10SM OVC038 M02/M08 A3023 RMK AO2
Loading
Personal Weather Stations






























Interactive Weather Map New forecast layout! Learn more

10-Day Weather Forecast

Advertisements
Track Severe Weather on mobile